Time;durP1;ratioP1;P1;durP2;ratioP2;P2;SDS_P1;SDS_P2;PMS_P1;PMS_P2;Temp;Humidity;BMP_temperature;BMP_pressure;BME280_temperature;BME280_humidity;BME280_pressure;Samples;Min_cycle;Max_cycle;Signal;HPM_P1;HPM_P2
2023/09/24 00:01:43;;;;;;;0.00;0.00;;;12.80;99.90;;;;;;5012398;28;20034;-85
2023/09/24 00:04:10;;;;;;;0.63;0.63;;;13.00;99.90;;;;;;5012155;28;20030;-84
2023/09/24 00:06:36;;;;;;;0.10;0.10;;;13.10;99.90;;;;;;5012091;28;20030;-83
2023/09/24 00:09:03;;;;;;;0.00;0.00;;;13.10;99.90;;;;;;5011897;28;20022;-84
2023/09/24 00:11:29;;;;;;;0.00;0.00;;;13.10;99.90;;;;;;5011938;28;20155;-82
2023/09/24 00:13:54;;;;;;;0.10;0.10;;;13.00;99.90;;;;;;5011941;28;20038;-82
2023/09/24 00:16:20;;;;;;;0.00;0.00;;;13.00;99.90;;;;;;5011853;28;20022;-83
2023/09/24 00:18:46;;;;;;;0.10;0.10;;;13.10;99.90;;;;;;5011744;28;20109;-83
2023/09/24 00:21:12;;;;;;;0.10;0.10;;;13.00;99.90;;;;;;5012037;28;20106;-83
2023/09/24 00:23:39;;;;;;;0.00;0.00;;;13.00;99.90;;;;;;5011663;28;20022;-82
2023/09/24 00:26:05;;;;;;;0.03;0.03;;;12.90;99.90;;;;;;5012085;28;20037;-82
2023/09/24 00:28:31;;;;;;;0.00;0.00;;;12.80;99.90;;;;;;5011691;28;20079;-82
2023/09/24 00:30:58;;;;;;;0.00;0.00;;;12.80;99.90;;;;;;5010644;28;20022;-82
2023/09/24 00:33:24;;;;;;;0.00;0.00;;;12.70;99.90;;;;;;5010372;28;20513;-82
2023/09/24 00:35:51;;;;;;;0.10;0.10;;;12.70;99.90;;;;;;5011895;28;20025;-82
2023/09/24 00:38:18;;;;;;;0.10;0.10;;;12.50;99.90;;;;;;5010061;28;20124;-82
2023/09/24 00:40:44;;;;;;;0.00;0.00;;;12.60;99.90;;;;;;5012359;28;20426;-81
2023/09/24 00:43:32;;;;;;;0.00;0.00;;;12.40;99.90;;;;;;5014272;28;20026;-81
2023/09/24 00:46:00;;;;;;;0.10;0.10;;;12.40;99.90;;;;;;5014073;28;20121;-81
2023/09/24 00:48:29;;;;;;;0.10;0.10;;;12.40;99.90;;;;;;5011182;28;20026;-81
2023/09/24 00:51:00;;;;;;;0.10;0.10;;;12.50;99.90;;;;;;5010205;28;20034;-81
2023/09/24 00:53:30;;;;;;;1.30;0.90;;;12.30;99.90;;;;;;5010963;28;20042;-81
2023/09/24 00:55:57;;;;;;;0.10;0.10;;;12.00;99.90;;;;;;5010295;28;20444;-82
2023/09/24 00:58:27;;;;;;;0.00;0.00;;;11.90;99.90;;;;;;5011317;28;20030;-81
2023/09/24 01:00:54;;;;;;;0.10;0.10;;;11.90;99.90;;;;;;5009485;28;20427;-82
2023/09/24 01:03:24;;;;;;;0.10;0.10;;;12.00;99.90;;;;;;5009944;28;20109;-82
2023/09/24 01:05:53;;;;;;;0.10;0.10;;;12.20;99.90;;;;;;5010868;28;20026;-82
2023/09/24 01:08:21;;;;;;;0.10;0.10;;;12.20;99.90;;;;;;5011304;28;20041;-82
2023/09/24 01:10:48;;;;;;;0.08;0.08;;;12.30;99.90;;;;;;5009865;28;20026;-82
2023/09/24 01:13:22;;;;;;;0.10;0.10;;;12.10;99.90;;;;;;5011258;28;20045;-81
2023/09/24 01:15:49;;;;;;;0.10;0.10;;;12.00;99.90;;;;;;4993782;28;20037;-81
2023/09/24 01:18:19;;;;;;;0.00;0.00;;;11.70;99.90;;;;;;5003278;28;20546;-82
2023/09/24 01:20:46;;;;;;;0.10;0.10;;;11.90;99.90;;;;;;5009399;28;20026;-81
2023/09/24 01:23:16;;;;;;;0.10;0.10;;;11.90;99.90;;;;;;5011233;28;20022;-82
2023/09/24 01:25:45;;;;;;;0.10;0.10;;;11.80;99.90;;;;;;5010917;28;20025;-82
2023/09/24 01:28:11;;;;;;;0.00;0.00;;;11.90;99.90;;;;;;5010971;28;20478;-81
2023/09/24 01:30:38;;;;;;;0.10;0.10;;;11.60;99.90;;;;;;5010748;28;20021;-81
2023/09/24 01:33:05;;;;;;;0.25;0.25;;;11.60;99.90;;;;;;5010986;28;20083;-81
2023/09/24 01:35:35;;;;;;;13.07;4.85;;;11.40;99.90;;;;;;5010350;28;20059;-81
2023/09/24 01:38:04;;;;;;;0.35;0.35;;;11.30;99.90;;;;;;5010869;28;20032;-81
2023/09/24 01:40:34;;;;;;;0.25;0.25;;;11.60;99.90;;;;;;5009029;28;20112;-80
2023/09/24 01:43:02;;;;;;;0.00;0.00;;;11.80;99.90;;;;;;5009448;28;20494;-81
2023/09/24 01:45:28;;;;;;;2.17;2.00;;;11.90;99.90;;;;;;5009514;28;20041;-81
2023/09/24 01:47:57;;;;;;;0.10;0.10;;;12.10;99.90;;;;;;5010583;28;20034;-81
2023/09/24 01:50:29;;;;;;;0.08;0.08;;;12.00;99.90;;;;;;5009138;28;20104;-81
2023/09/24 01:52:57;;;;;;;0.10;0.10;;;11.80;99.90;;;;;;5010622;28;20029;-80
2023/09/24 01:55:24;;;;;;;0.10;0.10;;;11.90;99.90;;;;;;5010484;28;20069;-80
2023/09/24 01:57:51;;;;;;;0.00;0.00;;;11.70;99.90;;;;;;5010392;28;20033;-81
2023/09/24 02:00:23;;;;;;;0.25;0.25;;;11.70;99.90;;;;;;5009164;28;20128;-80
2023/09/24 02:02:54;;;;;;;0.00;0.00;;;11.60;99.90;;;;;;5010329;28;20543;-80
2023/09/24 02:05:20;;;;;;;0.10;0.10;;;11.60;99.90;;;;;;5025471;28;20053;-80
2023/09/24 02:07:49;;;;;;;0.10;0.10;;;11.70;99.90;;;;;;5009319;28;20048;-81
2023/09/24 02:10:20;;;;;;;0.17;0.17;;;11.90;99.90;;;;;;5009039;28;20029;-80
2023/09/24 02:12:46;;;;;;;0.13;0.13;;;11.70;99.90;;;;;;5009688;28;20041;-80
2023/09/24 02:15:14;;;;;;;0.05;0.05;;;11.70;99.90;;;;;;5008486;28;20034;-81
2023/09/24 02:17:40;;;;;;;0.10;0.10;;;11.60;99.90;;;;;;5010438;28;20026;-80
2023/09/24 02:20:31;;;;;;;0.40;0.40;;;11.50;99.90;;;;;;5009926;28;20032;-80
2023/09/24 02:23:03;;;;;;;0.03;0.03;;;11.60;99.90;;;;;;5010468;28;20469;-80
2023/09/24 02:25:33;;;;;;;0.10;0.10;;;11.60;99.90;;;;;;5010110;28;20054;-80
2023/09/24 02:28:00;;;;;;;0.10;0.10;;;11.60;99.90;;;;;;5010375;28;20026;-80
2023/09/24 02:30:28;;;;;;;0.10;0.10;;;11.40;99.90;;;;;;5025044;28;20018;-81
2023/09/24 02:32:55;;;;;;;0.00;0.00;;;11.30;99.90;;;;;;5009022;28;20042;-81
2023/09/24 02:35:21;;;;;;;0.10;0.10;;;11.30;99.90;;;;;;5008565;28;20490;-81
2023/09/24 02:37:53;;;;;;;0.30;0.28;;;11.30;99.90;;;;;;5025508;28;20077;-80
2023/09/24 02:40:30;;;;;;;0.10;0.10;;;11.40;99.90;;;;;;5009892;28;20026;-81
2023/09/24 02:43:04;;;;;;;3.42;1.38;;;11.40;99.90;;;;;;5009105;28;20434;-80
2023/09/24 02:45:30;;;;;;;0.88;0.88;;;11.30;99.90;;;;;;5008865;28;20386;-80
2023/09/24 02:47:57;;;;;;;0.20;0.20;;;11.30;99.90;;;;;;5009590;28;20038;-80
2023/09/24 02:50:24;;;;;;;0.10;0.10;;;11.40;99.90;;;;;;5010123;28;20075;-80
2023/09/24 02:52:55;;;;;;;0.10;0.10;;;11.50;99.90;;;;;;5008626;28;20034;-80
2023/09/24 02:55:22;;;;;;;0.10;0.10;;;11.50;99.90;;;;;;5010022;28;20038;-79
2023/09/24 02:57:51;;;;;;;0.40;0.40;;;11.50;99.90;;;;;;5009679;28;20462;-80
2023/09/24 03:00:26;;;;;;;1.35;0.40;;;11.50;99.90;;;;;;5024827;28;20063;-79
2023/09/24 03:02:57;;;;;;;3.50;1.70;;;11.40;99.90;;;;;;5008275;28;20431;-78
2023/09/24 03:05:24;;;;;;;0.20;0.20;;;11.20;99.90;;;;;;5008651;28;20497;-80
2023/09/24 03:07:53;;;;;;;0.10;0.10;;;11.20;99.90;;;;;;5008308;28;20032;-80
2023/09/24 03:10:20;;;;;;;0.20;0.20;;;11.20;99.90;;;;;;4992093;28;20083;-80
2023/09/24 03:12:48;;;;;;;0.10;0.10;;;11.10;99.90;;;;;;5009821;28;20521;-80
2023/09/24 03:15:14;;;;;;;0.20;0.20;;;11.20;99.90;;;;;;5008140;28;20037;-80
2023/09/24 03:17:41;;;;;;;0.17;0.17;;;11.10;99.90;;;;;;5024598;28;20022;-80
2023/09/24 03:20:17;;;;;;;0.10;0.10;;;11.20;99.90;;;;;;5009284;28;20501;-80
2023/09/24 03:22:48;;;;;;;0.17;0.17;;;11.40;99.90;;;;;;5024572;28;20030;-80
2023/09/24 03:25:18;;;;;;;0.70;0.70;;;11.40;99.90;;;;;;5011313;28;20026;-80
2023/09/24 03:27:46;;;;;;;0.10;0.10;;;11.30;99.90;;;;;;5011425;28;20129;-80
2023/09/24 03:30:17;;;;;;;0.55;0.55;;;11.30;99.90;;;;;;5027954;28;20133;-80
2023/09/24 03:32:47;;;;;;;0.10;0.10;;;11.30;99.90;;;;;;5012421;28;20022;-80
2023/09/24 03:35:17;;;;;;;0.20;0.20;;;11.30;99.90;;;;;;5011276;28;20371;-80
2023/09/24 03:37:45;;;;;;;0.63;0.57;;;11.30;99.90;;;;;;5011441;28;20036;-80
2023/09/24 03:40:15;;;;;;;1.63;0.57;;;11.10;99.90;;;;;;5027331;28;20293;-78
2023/09/24 03:42:42;;;;;;;0.10;0.10;;;11.10;99.90;;;;;;5012638;28;20033;-81
2023/09/24 03:45:09;;;;;;;0.10;0.10;;;11.10;99.90;;;;;;5012577;28;20038;-81
2023/09/24 03:47:38;;;;;;;1.05;0.95;;;11.10;99.90;;;;;;5010931;28;20030;-81
2023/09/24 03:50:08;;;;;;;0.10;0.10;;;11.10;99.90;;;;;;5011257;28;20033;-81
2023/09/24 03:52:35;;;;;;;0.20;0.20;;;11.10;99.90;;;;;;5010953;28;20022;-80
2023/09/24 03:55:01;;;;;;;0.47;0.45;;;11.10;99.90;;;;;;5011103;28;20053;-81
2023/09/24 03:57:29;;;;;;;0.10;0.10;;;11.20;99.90;;;;;;5011080;28;20482;-82
2023/09/24 03:59:55;;;;;;;0.10;0.10;;;11.00;99.90;;;;;;5012041;28;20109;-81
2023/09/24 04:02:22;;;;;;;0.10;0.10;;;11.10;99.90;;;;;;5027239;28;20117;-82
2023/09/24 04:04:48;;;;;;;0.10;0.10;;;11.10;99.90;;;;;;5012245;28;20026;-82
2023/09/24 04:07:15;;;;;;;0.35;0.32;;;11.10;99.90;;;;;;5010857;28;20018;-82
2023/09/24 04:09:43;;;;;;;1.85;1.05;;;11.10;99.90;;;;;;5027179;28;20044;-80
2023/09/24 04:12:09;;;;;;;0.20;0.20;;;11.20;99.90;;;;;;5011168;28;20030;-81
2023/09/24 04:14:36;;;;;;;0.17;0.17;;;11.20;99.90;;;;;;5011751;28;20042;-81
2023/09/24 04:17:02;;;;;;;0.10;0.10;;;11.20;99.90;;;;;;5012042;28;20022;-82
2023/09/24 04:19:30;;;;;;;0.10;0.10;;;11.20;99.90;;;;;;5010686;28;20052;-81
2023/09/24 04:21:56;;;;;;;5.93;1.35;;;11.20;99.90;;;;;;5012040;28;20440;-81
2023/09/24 04:24:21;;;;;;;0.10;0.10;;;11.20;99.90;;;;;;5011737;28;20026;-81
2023/09/24 04:26:47;;;;;;;0.10;0.10;;;11.30;99.90;;;;;;5011951;28;20029;-81
2023/09/24 04:29:15;;;;;;;0.10;0.10;;;11.30;99.90;;;;;;5011604;28;20021;-81
2023/09/24 04:31:44;;;;;;;0.30;0.30;;;11.30;99.90;;;;;;5011812;28;20034;-80
2023/09/24 04:34:12;;;;;;;0.00;0.00;;;11.30;99.90;;;;;;5011682;28;20087;-81
2023/09/24 04:36:39;;;;;;;0.15;0.15;;;11.10;99.90;;;;;;5010957;28;20029;-81
2023/09/24 04:39:06;;;;;;;0.10;0.10;;;11.10;99.90;;;;;;5011474;28;20385;-80
2023/09/24 04:41:33;;;;;;;0.40;0.40;;;11.10;99.90;;;;;;5011893;28;20041;-79
2023/09/24 04:43:59;;;;;;;1.13;1.05;;;11.30;99.90;;;;;;5011366;28;20018;-81
2023/09/24 04:46:25;;;;;;;0.10;0.10;;;11.30;99.90;;;;;;5011594;28;20026;-81
2023/09/24 04:48:51;;;;;;;0.10;0.10;;;11.30;99.90;;;;;;5011500;28;20045;-79
2023/09/24 04:51:17;;;;;;;0.10;0.10;;;11.20;99.90;;;;;;5011499;28;20025;-80
2023/09/24 04:53:43;;;;;;;1.45;0.43;;;11.30;99.90;;;;;;5010284;28;20030;-80
2023/09/24 04:56:09;;;;;;;0.10;0.10;;;11.30;99.90;;;;;;5011271;28;20509;-79
2023/09/24 04:58:35;;;;;;;0.10;0.10;;;11.30;99.90;;;;;;5011021;28;20087;-80
2023/09/24 05:01:07;;;;;;;0.10;0.10;;;11.20;99.90;;;;;;5010110;28;20499;-80
2023/09/24 05:03:36;;;;;;;0.10;0.10;;;11.20;99.90;;;;;;4991132;28;20038;-80
2023/09/24 05:06:03;;;;;;;0.10;0.10;;;11.20;99.90;;;;;;5004369;28;20163;-80
2023/09/24 05:08:29;;;;;;;0.10;0.10;;;11.20;99.90;;;;;;5011026;28;20026;-80
2023/09/24 05:10:55;;;;;;;0.10;0.10;;;11.20;99.90;;;;;;5011304;28;20029;-80
2023/09/24 05:13:21;;;;;;;0.00;0.00;;;11.10;99.90;;;;;;5010967;28;20383;-81
2023/09/24 05:15:53;;;;;;;1.45;0.47;;;11.10;99.90;;;;;;5000709;28;20168;-81
2023/09/24 05:18:21;;;;;;;0.10;0.10;;;11.00;99.90;;;;;;4997775;28;20041;-81
2023/09/24 05:20:47;;;;;;;0.00;0.00;;;11.10;99.90;;;;;;5007963;28;20028;-81
2023/09/24 05:23:13;;;;;;;0.22;0.20;;;11.10;99.90;;;;;;5011148;28;20073;-79
2023/09/24 05:25:39;;;;;;;0.25;0.20;;;11.10;99.90;;;;;;5010665;28;20033;-81
2023/09/24 05:28:05;;;;;;;0.63;0.63;;;11.10;99.90;;;;;;5010501;28;20048;-80
2023/09/24 05:30:31;;;;;;;0.10;0.10;;;11.00;99.90;;;;;;5010662;28;20029;-81
2023/09/24 05:32:57;;;;;;;0.50;0.50;;;10.90;99.90;;;;;;5011204;28;20030;-81
2023/09/24 05:35:23;;;;;;;0.90;0.57;;;10.90;99.90;;;;;;5010525;28;20026;-81
2023/09/24 05:37:48;;;;;;;0.65;0.65;;;10.70;99.90;;;;;;5009569;28;20466;-81
2023/09/24 05:40:14;;;;;;;0.20;0.20;;;10.80;99.90;;;;;;5010419;28;20038;-81
2023/09/24 05:42:43;;;;;;;0.10;0.10;;;10.90;99.90;;;;;;5010752;28;20022;-81
2023/09/24 05:45:10;;;;;;;0.43;0.43;;;10.90;99.90;;;;;;5010747;28;20034;-81
2023/09/24 05:47:36;;;;;;;1.13;1.02;;;11.00;99.90;;;;;;4994641;28;20014;-81
2023/09/24 05:50:03;;;;;;;0.30;0.30;;;11.00;99.90;;;;;;5010694;28;20093;-81
2023/09/24 05:52:30;;;;;;;0.10;0.10;;;11.00;99.90;;;;;;5010686;28;20034;-81
2023/09/24 05:54:56;;;;;;;0.10;0.10;;;11.00;99.90;;;;;;5010685;28;20417;-81
2023/09/24 05:57:26;;;;;;;0.10;0.10;;;11.20;99.90;;;;;;5010451;28;20108;-81
2023/09/24 05:59:53;;;;;;;0.10;0.10;;;11.20;99.90;;;;;;5010495;28;20468;-80
2023/09/24 06:02:22;;;;;;;0.10;0.10;;;11.10;99.90;;;;;;5010647;28;20061;-80
2023/09/24 06:04:49;;;;;;;0.10;0.10;;;11.10;99.90;;;;;;5010286;28;20018;-80
2023/09/24 06:07:14;;;;;;;1.08;0.30;;;11.10;99.90;;;;;;5009301;28;20026;-81
2023/09/24 06:09:40;;;;;;;1.77;0.77;;;11.10;99.90;;;;;;5010615;28;20398;-80
2023/09/24 06:12:07;;;;;;;1.58;0.93;;;11.10;99.90;;;;;;5009913;28;20028;-79
2023/09/24 06:14:33;;;;;;;0.25;0.25;;;11.20;99.90;;;;;;5009239;28;20438;-80
2023/09/24 06:16:59;;;;;;;1.77;1.45;;;11.20;99.90;;;;;;5009014;28;20041;-81
2023/09/24 06:19:25;;;;;;;0.30;0.30;;;11.20;99.90;;;;;;5010414;28;20121;-81
2023/09/24 06:21:51;;;;;;;0.10;0.10;;;11.20;99.90;;;;;;5010219;28;20100;-81
2023/09/24 06:24:19;;;;;;;0.60;0.57;;;11.40;99.90;;;;;;5010929;28;20022;-81
2023/09/24 06:26:46;;;;;;;0.55;0.55;;;11.60;99.90;;;;;;5009760;28;20090;-81
2023/09/24 06:29:13;;;;;;;7.05;0.73;;;11.60;99.90;;;;;;5025296;28;20042;-81
2023/09/24 06:31:39;;;;;;;0.45;0.30;;;11.70;99.90;;;;;;5009996;28;20083;-80
2023/09/24 06:34:05;;;;;;;0.10;0.10;;;11.90;99.90;;;;;;5010378;28;20037;-79
2023/09/24 06:36:31;;;;;;;0.57;0.55;;;11.60;99.90;;;;;;5009948;28;20034;-81
2023/09/24 06:38:57;;;;;;;0.35;0.35;;;11.60;99.90;;;;;;5010037;28;20488;-82
2023/09/24 06:41:23;;;;;;;0.30;0.30;;;11.70;99.90;;;;;;5009546;28;20043;-79
2023/09/24 06:43:48;;;;;;;0.20;0.20;;;11.70;99.90;;;;;;5017839;28;20097;-78
2023/09/24 06:46:14;;;;;;;0.52;0.30;;;11.60;99.90;;;;;;5015276;28;20115;-78
2023/09/24 06:48:40;;;;;;;0.10;0.10;;;11.70;99.90;;;;;;5046830;28;20028;-79
2023/09/24 06:51:07;;;;;;;0.43;0.38;;;11.80;99.90;;;;;;5048634;28;20031;-79
2023/09/24 06:53:33;;;;;;;0.10;0.10;;;11.90;99.90;;;;;;5019409;28;20122;-80
2023/09/24 06:55:59;;;;;;;5.53;1.23;;;11.90;99.90;;;;;;5077356;28;20049;-79
2023/09/24 06:58:25;;;;;;;0.70;0.60;;;12.00;99.90;;;;;;5035129;28;20542;-80
2023/09/24 07:00:50;;;;;;;0.45;0.45;;;12.10;99.90;;;;;;5074455;28;20044;-79
2023/09/24 07:03:16;;;;;;;0.40;0.30;;;12.10;99.90;;;;;;5037818;28;20091;-79
2023/09/24 07:05:42;;;;;;;12.40;11.18;;;12.10;99.90;;;;;;5018669;28;20030;-80
2023/09/24 07:08:08;;;;;;;0.40;0.40;;;12.20;99.90;;;;;;5078776;28;20468;-79
2023/09/24 07:10:34;;;;;;;0.73;0.73;;;12.20;99.90;;;;;;5077531;28;20121;-79
2023/09/24 07:12:59;;;;;;;2.75;1.02;;;12.30;99.90;;;;;;5062699;28;20111;-78
2023/09/24 07:15:25;;;;;;;0.20;0.20;;;12.40;99.90;;;;;;5027028;28;20042;-79
2023/09/24 07:17:51;;;;;;;0.65;0.43;;;12.40;99.90;;;;;;5014755;28;20038;-79
2023/09/24 07:20:18;;;;;;;0.28;0.28;;;12.60;99.90;;;;;;5075479;28;20038;-79
2023/09/24 07:22:43;;;;;;;0.40;0.25;;;12.60;99.90;;;;;;5079765;27;20012;-80
2023/09/24 07:25:11;;;;;;;3.95;1.20;;;12.80;99.90;;;;;;5051332;28;20531;-79
2023/09/24 07:27:36;;;;;;;13.85;2.50;;;12.90;99.90;;;;;;5023006;28;20071;-80
2023/09/24 07:30:03;;;;;;;2.78;0.75;;;12.90;99.90;;;;;;5082020;28;20437;-78
2023/09/24 07:32:29;;;;;;;0.45;0.45;;;13.10;99.90;;;;;;5079871;28;20030;-79
2023/09/24 07:34:55;;;;;;;1.45;1.35;;;13.20;99.90;;;;;;5075380;28;20387;-79
2023/09/24 07:37:21;;;;;;;0.55;0.55;;;13.30;99.90;;;;;;5035221;28;20467;-79
2023/09/24 07:39:49;;;;;;;0.50;0.45;;;13.40;99.90;;;;;;5018808;28;20042;-78
2023/09/24 07:42:16;;;;;;;0.35;0.35;;;13.40;99.90;;;;;;5079269;28;20032;-78
2023/09/24 07:44:42;;;;;;;0.93;0.57;;;13.50;99.90;;;;;;5041892;28;20057;-79
2023/09/24 07:47:08;;;;;;;0.75;0.75;;;13.60;99.90;;;;;;5032625;28;20482;-79
2023/09/24 07:49:34;;;;;;;1.63;0.70;;;13.60;99.90;;;;;;5047586;28;20026;-79
2023/09/24 07:52:00;;;;;;;0.45;0.45;;;13.80;99.90;;;;;;5033450;28;20026;-79
2023/09/24 07:54:27;;;;;;;0.20;0.20;;;13.80;99.90;;;;;;5029340;28;20482;-77
2023/09/24 07:56:53;;;;;;;14.35;0.77;;;14.00;99.90;;;;;;5100016;28;20015;-77
2023/09/24 07:59:19;;;;;;;0.00;0.00;;;14.20;99.90;;;;;;5059583;28;20021;-79
2023/09/24 08:01:45;;;;;;;0.85;0.52;;;14.40;99.90;;;;;;5018679;28;20033;-78
2023/09/24 08:04:12;;;;;;;0.77;0.20;;;14.50;99.90;;;;;;5030504;28;20034;-78
2023/09/24 08:06:38;;;;;;;1.27;0.90;;;14.50;99.90;;;;;;5028247;28;20038;-78
2023/09/24 08:09:05;;;;;;;0.32;0.32;;;14.50;99.90;;;;;;5090880;28;20023;-76
2023/09/24 08:11:32;;;;;;;0.10;0.10;;;14.60;99.90;;;;;;5042232;28;20455;-79
2023/09/24 08:13:58;;;;;;;0.13;0.13;;;14.80;99.90;;;;;;5019244;28;20045;-78
2023/09/24 08:16:24;;;;;;;0.00;0.00;;;15.00;99.90;;;;;;5023720;28;20113;-80
2023/09/24 08:18:50;;;;;;;0.43;0.40;;;15.00;99.90;;;;;;5025484;28;20189;-78
2023/09/24 08:21:16;;;;;;;2.42;0.47;;;15.00;99.90;;;;;;5021022;28;20113;-78
2023/09/24 08:23:42;;;;;;;0.60;0.57;;;14.90;99.90;;;;;;5011426;28;20021;-80
2023/09/24 08:26:08;;;;;;;0.03;0.03;;;14.90;99.90;;;;;;5013431;28;20048;-81
2023/09/24 08:28:34;;;;;;;0.10;0.10;;;15.10;99.90;;;;;;5011960;28;20103;-80
2023/09/24 08:31:07;;;;;;;0.43;0.35;;;15.30;99.90;;;;;;5011873;28;20033;-80
2023/09/24 08:33:32;;;;;;;0.82;0.82;;;15.30;99.90;;;;;;5010403;28;20022;-83
2023/09/24 08:35:58;;;;;;;2.08;0.52;;;15.30;99.90;;;;;;5010995;28;20395;-84
2023/09/24 08:38:24;;;;;;;2.92;0.40;;;15.30;99.90;;;;;;5011609;28;20029;-85
2023/09/24 08:40:50;;;;;;;1.23;0.70;;;15.10;99.90;;;;;;5011687;28;20022;-83
2023/09/24 08:43:17;;;;;;;0.00;0.00;;;15.10;99.90;;;;;;5011335;28;20037;-84
2023/09/24 08:45:42;;;;;;;0.95;0.95;;;15.30;99.90;;;;;;5011474;28;20080;-85
2023/09/24 08:48:09;;;;;;;0.25;0.25;;;15.40;99.90;;;;;;5011565;28;20102;-83
2023/09/24 08:50:40;;;;;;;0.10;0.10;;;15.70;99.90;;;;;;5011118;28;20559;-83
2023/09/24 08:53:15;;;;;;;0.20;0.20;;;16.00;99.90;;;;;;5011359;28;20033;-83
2023/09/24 08:55:45;;;;;;;0.32;0.32;;;16.20;99.90;;;;;;5011338;28;20050;-84
2023/09/24 08:58:11;;;;;;;0.20;0.10;;;16.10;99.90;;;;;;5011534;28;20022;-82
2023/09/24 09:00:38;;;;;;;0.25;0.25;;;16.30;99.90;;;;;;5011152;28;20026;-84
2023/09/24 09:03:05;;;;;;;0.50;0.50;;;16.30;99.90;;;;;;5011381;28;20026;-84
2023/09/24 09:05:36;;;;;;;0.43;0.15;;;16.40;99.90;;;;;;5010727;28;20097;-84
2023/09/24 09:08:03;;;;;;;0.10;0.10;;;16.70;99.90;;;;;;5011364;28;20030;-83
2023/09/24 09:10:31;;;;;;;0.28;0.28;;;16.90;99.90;;;;;;5011125;28;20056;-85
2023/09/24 09:13:07;;;;;;;0.15;0.15;;;16.70;99.90;;;;;;5010001;28;20071;-84
2023/09/24 09:15:33;;;;;;;1.75;0.63;;;16.70;99.90;;;;;;4993312;28;20050;-84
2023/09/24 09:18:00;;;;;;;0.20;0.20;;;16.90;99.90;;;;;;5011401;28;20025;-85
2023/09/24 09:20:44;;;;;;;0.38;0.38;;;16.70;99.90;;;;;;5010611;28;20901;-81
2023/09/24 09:23:12;;;;;;;1.80;1.02;;;16.80;99.90;;;;;;5009347;28;20037;-84
2023/09/24 09:25:53;;;;;;;0.10;0.10;;;17.10;99.90;;;;;;5010939;28;20083;-84
2023/09/24 09:28:23;;;;;;;0.20;0.10;;;17.20;99.90;;;;;;5009679;28;20592;-85
2023/09/24 09:31:20;;;;;;;3.58;1.08;;;17.40;99.90;;;;;;5011061;28;20101;-85
2023/09/24 09:33:47;;;;;;;0.45;0.45;;;17.30;99.90;;;;;;5010487;28;20432;-85
2023/09/24 09:36:30;;;;;;;0.10;0.10;;;17.30;99.90;;;;;;5010594;28;20026;-84
2023/09/24 09:38:57;;;;;;;0.98;0.52;;;17.60;99.90;;;;;;5010791;28;20022;-85
2023/09/24 09:41:24;;;;;;;3.13;1.25;;;17.80;99.90;;;;;;5010977;28;20026;-85
2023/09/24 09:43:55;;;;;;;1.02;0.63;;;17.70;99.90;;;;;;5010631;28;20117;-86
2023/09/24 09:46:24;;;;;;;1.38;0.57;;;17.80;99.90;;;;;;5010704;28;20062;-85
2023/09/24 09:48:56;;;;;;;0.00;0.00;;;18.10;99.90;;;;;;5014194;28;20042;-80
2023/09/24 09:51:22;;;;;;;0.50;0.38;;;18.60;99.90;;;;;;5009225;28;20053;-86
2023/09/24 09:53:50;;;;;;;0.10;0.10;;;18.70;99.90;;;;;;5010824;28;20434;-83
2023/09/24 09:56:18;;;;;;;3.03;0.32;;;18.50;99.90;;;;;;5010888;28;20120;-87
2023/09/24 09:58:47;;;;;;;0.47;0.20;;;18.50;99.90;;;;;;5010597;28;20479;-86
2023/09/24 10:01:13;;;;;;;0.40;0.40;;;18.40;99.90;;;;;;5010138;28;20030;-85
2023/09/24 10:03:42;;;;;;;2.30;0.60;;;18.30;99.90;;;;;;5010181;28;20083;-85
2023/09/24 10:06:10;;;;;;;1.15;0.50;;;18.30;99.90;;;;;;5010027;28;20026;-85
2023/09/24 10:08:43;;;;;;;0.00;0.00;;;18.20;99.90;;;;;;5010449;28;20032;-85
2023/09/24 10:11:11;;;;;;;0.20;0.20;;;18.20;99.90;;;;;;5010403;28;20083;-85
2023/09/24 10:13:45;;;;;;;9.48;0.68;;;18.60;99.90;;;;;;5010345;28;20037;-87
2023/09/24 10:16:41;;;;;;;1.65;0.63;;;18.70;99.90;;;;;;5010156;28;20053;-86
2023/09/24 10:19:12;;;;;;;0.45;0.40;;;18.80;99.90;;;;;;5010088;28;20083;-82
2023/09/24 10:21:40;;;;;;;0.60;0.40;;;18.70;99.90;;;;;;5008874;28;20037;-82
2023/09/24 10:24:12;;;;;;;2.25;0.40;;;18.30;99.90;;;;;;5010366;28;20351;-79
2023/09/24 10:27:03;;;;;;;0.10;0.10;;;18.30;99.90;;;;;;5008801;28;20394;-77
2023/09/24 10:29:59;;;;;;;13.90;1.23;;;18.30;99.90;;;;;;5010100;28;20082;-77
2023/09/24 10:32:26;;;;;;;0.20;0.20;;;18.50;99.90;;;;;;5013620;28;20443;-82
2023/09/24 10:34:54;;;;;;;2.03;0.40;;;18.90;99.90;;;;;;5009076;28;20042;-80
2023/09/24 10:37:29;;;;;;;0.30;0.15;;;19.20;99.90;;;;;;5010091;28;20030;-79
2023/09/24 10:42:34;;;;;;;2.33;0.40;;;19.40;99.90;;;;;;5008586;28;20129;-82
2023/09/24 10:45:05;;;;;;;0.35;0.35;;;19.30;99.90;;;;;;5009887;28;20087;-77
2023/09/24 10:47:34;;;;;;;;;;;19.40;99.90;;;;;;5009936;28;20034;-82
2023/09/24 10:50:06;;;;;;;1.20;1.08;;;19.40;99.90;;;;;;5010146;28;19952;-78
2023/09/24 10:52:54;;;;;;;1.40;0.47;;;19.60;99.90;;;;;;5009770;28;20075;-79
2023/09/24 10:55:41;;;;;;;0.20;0.20;;;19.60;99.90;;;;;;5009700;28;20117;-80
2023/09/24 10:58:15;;;;;;;0.40;0.40;;;19.70;99.90;;;;;;5008438;28;20026;-79
2023/09/24 11:00:43;;;;;;;1.05;0.38;;;19.50;99.90;;;;;;5009456;28;20479;-79
2023/09/24 11:03:13;;;;;;;1.35;0.85;;;19.40;99.90;;;;;;5008550;28;20474;-79
2023/09/24 11:05:43;;;;;;;11.77;0.68;;;19.50;99.90;;;;;;5009599;28;20034;-78
2023/09/24 11:08:10;;;;;;;0.10;0.10;;;19.70;99.90;;;;;;5009573;28;20052;-76
2023/09/24 11:10:36;;;;;;;0.05;0.05;;;19.90;99.90;;;;;;5009616;28;20070;-76
2023/09/24 11:13:04;;;;;;;8.55;1.08;;;19.80;99.90;;;;;;5009536;28;20058;-81
2023/09/24 11:15:33;;;;;;;1.42;0.80;;;19.80;99.90;;;;;;5009335;28;20050;-78
2023/09/24 11:17:59;;;;;;;2.15;0.40;;;20.00;99.90;;;;;;5009458;28;20026;-80
2023/09/24 11:20:28;;;;;;;0.10;0.10;;;20.30;99.90;;;;;;5009508;28;20030;-81
2023/09/24 11:23:11;;;;;;;0.98;0.82;;;20.30;99.90;;;;;;5008462;28;20050;-84
2023/09/24 11:25:45;;;;;;;0.60;0.60;;;20.90;99.90;;;;;;4996417;28;20041;-77
2023/09/24 11:28:11;;;;;;;0.65;0.45;;;21.00;99.70;;;;;;5009541;28;20083;-78
2023/09/24 11:30:46;;;;;;;1.30;0.20;;;20.90;99.10;;;;;;5008998;28;20026;-79
2023/09/24 11:33:20;;;;;;;0.70;0.35;;;21.00;98.00;;;;;;5009475;28;20041;-82
2023/09/24 11:35:47;;;;;;;0.00;0.00;;;20.90;99.40;;;;;;5008372;28;20490;-82
2023/09/24 11:38:25;;;;;;;0.70;0.38;;;21.10;99.40;;;;;;5009477;28;20034;-80
2023/09/24 11:40:50;;;;;;;1.45;0.45;;;21.60;98.70;;;;;;5009316;28;20029;-78
2023/09/24 11:43:16;;;;;;;0.00;0.00;;;21.80;97.60;;;;;;5009378;28;20367;-81
2023/09/24 11:45:46;;;;;;;2.10;1.02;;;21.00;99.30;;;;;;5010076;28;20030;-79
2023/09/24 11:48:16;;;;;;;0.20;0.20;;;21.20;98.80;;;;;;5012366;28;20077;-77
2023/09/24 11:50:49;;;;;;;1.00;0.65;;;21.30;98.90;;;;;;5012675;28;20038;-79
2023/09/24 11:53:17;;;;;;;0.32;0.30;;;21.30;99.00;;;;;;5012672;28;20030;-82
2023/09/24 11:55:43;;;;;;;3.35;0.45;;;21.70;97.70;;;;;;5011306;28;20034;-84
2023/09/24 11:58:11;;;;;;;0.30;0.30;;;21.90;97.20;;;;;;5012193;28;20022;-83
2023/09/24 12:00:38;;;;;;;0.80;0.20;;;22.00;98.10;;;;;;5012344;28;20092;-85
2023/09/24 12:03:06;;;;;;;0.30;0.30;;;22.00;97.40;;;;;;5012326;28;20056;-85
2023/09/24 12:05:32;;;;;;;0.22;0.22;;;22.30;96.30;;;;;;5012482;28;20037;-86
2023/09/24 12:08:03;;;;;;;1.10;0.47;;;22.20;96.50;;;;;;5012391;28;20037;-85
2023/09/24 12:10:33;;;;;;;0.35;0.22;;;22.40;96.00;;;;;;5011928;28;20030;-86
2023/09/24 12:13:04;;;;;;;2.58;1.10;;;22.80;95.20;;;;;;5010534;28;20549;-86
2023/09/24 12:15:33;;;;;;;0.20;0.20;;;22.00;96.30;;;;;;5012136;28;20117;-86
2023/09/24 12:18:01;;;;;;;1.08;0.55;;;22.40;95.60;;;;;;5012119;28;20037;-86
2023/09/24 12:20:28;;;;;;;0.00;0.00;;;22.60;94.90;;;;;;5012075;28;20517;-86
2023/09/24 12:22:54;;;;;;;0.10;0.10;;;22.40;95.70;;;;;;5011750;28;20109;-85
2023/09/24 12:25:20;;;;;;;0.10;0.10;;;22.30;96.30;;;;;;5011886;28;20058;-86
2023/09/24 12:27:46;;;;;;;2.10;0.30;;;22.40;96.10;;;;;;5011788;28;20026;-86
2023/09/24 12:30:12;;;;;;;0.00;0.00;;;22.90;95.30;;;;;;5010708;28;20493;-84
2023/09/24 12:32:42;;;;;;;1.55;0.28;;;23.50;95.20;;;;;;5011974;28;20018;-79
2023/09/24 12:35:11;;;;;;;0.35;0.35;;;22.90;95.00;;;;;;5010388;28;20618;-84
2023/09/24 12:37:38;;;;;;;0.00;0.00;;;23.50;94.50;;;;;;5011896;28;20038;-83
2023/09/24 12:40:08;;;;;;;1.00;0.45;;;23.80;94.40;;;;;;5011848;28;20155;-80
2023/09/24 12:42:35;;;;;;;0.28;0.17;;;23.30;94.30;;;;;;5011660;28;20030;-85
2023/09/24 12:45:02;;;;;;;2.00;0.45;;;23.70;93.50;;;;;;5011519;28;20019;-84
2023/09/24 12:47:31;;;;;;;0.20;0.20;;;23.30;92.70;;;;;;5011556;28;20026;-84
2023/09/24 12:49:57;;;;;;;0.93;0.40;;;23.40;93.80;;;;;;5011516;28;20481;-75
2023/09/24 12:52:31;;;;;;;4.85;0.50;;;23.20;93.00;;;;;;5011565;28;20146;-84
2023/09/24 12:54:57;;;;;;;0.93;0.50;;;22.70;92.50;;;;;;5011229;28;20066;-85
2023/09/24 12:57:23;;;;;;;0.22;0.20;;;22.80;93.30;;;;;;5009222;28;20054;-85